UAL2057 KSAN-KLAX
Flight info
| Callsign | UAL2057 |
|---|---|
| Flight time | 0h 28m |
| Altitude | 10000 |
| Route | CWARD2 SLI |
| Aircraft | B38M/M-ICAO/HB1 |
Departure
| Time | 2026-04-21 21:27 |
|---|---|
| Airport | San Diego International Airport (KSAN) |
Arrival
| Time | 2026-04-21 21:55 |
|---|---|
| Airport | Los Angeles International Airport (KLAX) |
| Time | Latitude | Longitude | Altitude | Speed | Heading |
|---|---|---|---|---|---|
| 2026-04-21 21:05 | 32.73388 | -117.20470 | 24 ft | 0 kts | 86° |
| 2026-04-21 21:15 | 32.73388 | -117.20473 | 24 ft | 2 kts | 87° |
| 2026-04-21 21:16 | 32.73387 | -117.20491 | 24 ft | 2 kts | 86° |
| 2026-04-21 21:16 | 32.73386 | -117.20509 | 24 ft | 2 kts | 86° |
| 2026-04-21 21:16 | 32.73385 | -117.20527 | 24 ft | 2 kts | 86° |
| 2026-04-21 21:16 | 32.73385 | -117.20540 | 24 ft | 1 kts | 86° |
| 2026-04-21 21:17 | 32.73384 | -117.20551 | 24 ft | 1 kts | 60° |
| 2026-04-21 21:17 | 32.73373 | -117.20561 | 24 ft | 0 kts | 7° |
| 2026-04-21 21:17 | 32.73367 | -117.20561 | 24 ft | 1 kts | 358° |
| 2026-04-21 21:17 | 32.73364 | -117.20561 | 23 ft | 0 kts | 0° |
| 2026-04-21 21:21 | 32.73378 | -117.20561 | 24 ft | 7 kts | 0° |
| 2026-04-21 21:21 | 32.73457 | -117.20557 | 24 ft | 11 kts | 12° |
| 2026-04-21 21:21 | 32.73521 | -117.20504 | 24 ft | 12 kts | 51° |
| 2026-04-21 21:21 | 32.73584 | -117.20412 | 24 ft | 15 kts | 56° |
| 2026-04-21 21:22 | 32.73572 | -117.20277 | 24 ft | 19 kts | 106° |
| 2026-04-21 21:22 | 32.73533 | -117.20129 | 24 ft | 17 kts | 105° |
| 2026-04-21 21:22 | 32.73504 | -117.19997 | 24 ft | 15 kts | 105° |
| 2026-04-21 21:22 | 32.73476 | -117.19881 | 24 ft | 13 kts | 106° |
| 2026-04-21 21:23 | 32.73454 | -117.19780 | 25 ft | 11 kts | 103° |
| 2026-04-21 21:23 | 32.73424 | -117.19660 | 25 ft | 19 kts | 107° |
| 2026-04-21 21:23 | 32.73372 | -117.19457 | 27 ft | 31 kts | 109° |
| 2026-04-21 21:23 | 32.73307 | -117.19189 | 27 ft | 32 kts | 105° |
| 2026-04-21 21:24 | 32.73245 | -117.18926 | 25 ft | 32 kts | 105° |
| 2026-04-21 21:24 | 32.73170 | -117.18616 | 24 ft | 46 kts | 107° |
| 2026-04-21 21:24 | 32.73082 | -117.18256 | 24 ft | 41 kts | 105° |
| 2026-04-21 21:24 | 32.73011 | -117.17961 | 25 ft | 32 kts | 107° |
| 2026-04-21 21:25 | 32.72960 | -117.17748 | 28 ft | 15 kts | 104° |
| 2026-04-21 21:25 | 32.72959 | -117.17718 | 29 ft | 0 kts | 63° |
| 2026-04-21 21:25 | 32.72960 | -117.17716 | 29 ft | 1 kts | 63° |
| 2026-04-21 21:26 | 32.72982 | -117.17677 | 30 ft | 11 kts | 38° |
| 2026-04-21 21:26 | 32.73048 | -117.17703 | 30 ft | 0 kts | 285° |
| 2026-04-21 21:26 | 32.73058 | -117.17745 | 29 ft | 27 kts | 285° |
| 2026-04-21 21:26 | 32.73139 | -117.18082 | 25 ft | 90 kts | 286° |
| 2026-04-21 21:27 | 32.73385 | -117.19090 | 28 ft | 159 kts | 285° |
| 2026-04-21 21:27 | 32.73712 | -117.20430 | 625 ft | 173 kts | 283° |
| 2026-04-21 21:27 | 32.74086 | -117.21716 | 1694 ft | 170 kts | 301° |
| 2026-04-21 21:27 | 32.74852 | -117.22727 | 2684 ft | 171 kts | 310° |
| 2026-04-21 21:28 | 32.75574 | -117.23930 | 3405 ft | 191 kts | 300° |
| 2026-04-21 21:28 | 32.76303 | -117.25276 | 4340 ft | 202 kts | 302° |
| 2026-04-21 21:28 | 32.77840 | -117.28019 | 6600 ft | 202 kts | 300° |
| 2026-04-21 21:29 | 32.78622 | -117.29427 | 7530 ft | 210 kts | 299° |
| 2026-04-21 21:29 | 32.79440 | -117.30912 | 8482 ft | 216 kts | 298° |
| 2026-04-21 21:29 | 32.80308 | -117.32376 | 9397 ft | 223 kts | 301° |
| 2026-04-21 21:29 | 32.81263 | -117.33842 | 9961 ft | 232 kts | 301° |
| 2026-04-21 21:30 | 32.82289 | -117.35422 | 9993 ft | 241 kts | 301° |
| 2026-04-21 21:30 | 32.83347 | -117.37059 | 9983 ft | 251 kts | 302° |
| 2026-04-21 21:30 | 32.84427 | -117.38726 | 9986 ft | 248 kts | 301° |
| 2026-04-21 21:30 | 32.85484 | -117.40362 | 9969 ft | 250 kts | 301° |
| 2026-04-21 21:31 | 32.86548 | -117.42033 | 9950 ft | 245 kts | 300° |
| 2026-04-21 21:31 | 32.87589 | -117.43677 | 9984 ft | 248 kts | 301° |
| 2026-04-21 21:31 | 32.88675 | -117.45349 | 9983 ft | 249 kts | 302° |
| 2026-04-21 21:31 | 32.89749 | -117.46994 | 9964 ft | 250 kts | 301° |
| 2026-04-21 21:32 | 32.90823 | -117.48676 | 9984 ft | 251 kts | 301° |
| 2026-04-21 21:32 | 32.91892 | -117.50362 | 9934 ft | 249 kts | 301° |
| 2026-04-21 21:32 | 32.92972 | -117.52042 | 9955 ft | 250 kts | 301° |
| 2026-04-21 21:32 | 32.94046 | -117.53694 | 9940 ft | 251 kts | 301° |
| 2026-04-21 21:33 | 32.95128 | -117.55377 | 9941 ft | 251 kts | 301° |
| 2026-04-21 21:33 | 32.96183 | -117.57037 | 9939 ft | 250 kts | 301° |
| 2026-04-21 21:33 | 32.97250 | -117.58704 | 9939 ft | 249 kts | 301° |
| 2026-04-21 21:33 | 32.98325 | -117.60364 | 9941 ft | 249 kts | 301° |
| 2026-04-21 21:34 | 32.99379 | -117.62009 | 9940 ft | 250 kts | 301° |
| 2026-04-21 21:34 | 33.00444 | -117.63686 | 9943 ft | 250 kts | 301° |
| 2026-04-21 21:34 | 33.01517 | -117.65363 | 9945 ft | 258 kts | 301° |
| 2026-04-21 21:34 | 33.02647 | -117.67124 | 9934 ft | 277 kts | 302° |
| 2026-04-21 21:35 | 33.03870 | -117.69026 | 9948 ft | 295 kts | 302° |
| 2026-04-21 21:35 | 33.05119 | -117.70964 | 9927 ft | 296 kts | 302° |
| 2026-04-21 21:35 | 33.06391 | -117.72928 | 9918 ft | 294 kts | 304° |
| 2026-04-21 21:35 | 33.07892 | -117.74646 | 9938 ft | 301 kts | 315° |
| 2026-04-21 21:36 | 33.09532 | -117.76198 | 9951 ft | 302 kts | 315° |
| 2026-04-21 21:36 | 33.11150 | -117.77811 | 9933 ft | 298 kts | 314° |
| 2026-04-21 21:36 | 33.12750 | -117.79439 | 9943 ft | 299 kts | 314° |
| 2026-04-21 21:36 | 33.14332 | -117.81036 | 9959 ft | 299 kts | 314° |
| 2026-04-21 21:37 | 33.15937 | -117.82653 | 9947 ft | 301 kts | 314° |
| 2026-04-21 21:37 | 33.17550 | -117.84303 | 9944 ft | 301 kts | 314° |
| 2026-04-21 21:37 | 33.19175 | -117.85971 | 9929 ft | 304 kts | 315° |
| 2026-04-21 21:37 | 33.20982 | -117.87255 | 9930 ft | 309 kts | 338° |
| 2026-04-21 21:38 | 33.22966 | -117.87613 | 9937 ft | 321 kts | 352° |
| 2026-04-21 21:38 | 33.25219 | -117.87853 | 9936 ft | 317 kts | 347° |
| 2026-04-21 21:38 | 33.27386 | -117.88294 | 9940 ft | 316 kts | 344° |
| 2026-04-21 21:38 | 33.29557 | -117.88795 | 9923 ft | 307 kts | 344° |
| 2026-04-21 21:39 | 33.31606 | -117.89269 | 9935 ft | 292 kts | 343° |
| 2026-04-21 21:39 | 33.33583 | -117.89728 | 9940 ft | 278 kts | 342° |
| 2026-04-21 21:39 | 33.35471 | -117.90183 | 9940 ft | 267 kts | 342° |
| 2026-04-21 21:39 | 33.37317 | -117.90648 | 9926 ft | 269 kts | 341° |
| 2026-04-21 21:40 | 33.39162 | -117.91172 | 9946 ft | 268 kts | 337° |
| 2026-04-21 21:40 | 33.40946 | -117.91841 | 9677 ft | 268 kts | 336° |
| 2026-04-21 21:40 | 33.42720 | -117.92491 | 9409 ft | 265 kts | 337° |
| 2026-04-21 21:40 | 33.44495 | -117.93119 | 9158 ft | 263 kts | 336° |
| 2026-04-21 21:41 | 33.46281 | -117.93765 | 8845 ft | 263 kts | 337° |
| 2026-04-21 21:41 | 33.48034 | -117.94398 | 8605 ft | 261 kts | 337° |
| 2026-04-21 21:41 | 33.49767 | -117.95033 | 8372 ft | 259 kts | 337° |
| 2026-04-21 21:41 | 33.51487 | -117.95677 | 8150 ft | 256 kts | 336° |
| 2026-04-21 21:42 | 33.53193 | -117.96307 | 7913 ft | 254 kts | 337° |
| 2026-04-21 21:42 | 33.54894 | -117.96911 | 7634 ft | 254 kts | 338° |
| 2026-04-21 21:42 | 33.56597 | -117.97518 | 7347 ft | 254 kts | 338° |
| 2026-04-21 21:42 | 33.58288 | -117.98144 | 7131 ft | 251 kts | 337° |
| 2026-04-21 21:43 | 33.59960 | -117.98766 | 7001 ft | 246 kts | 337° |
| 2026-04-21 21:43 | 33.61592 | -117.99359 | 6991 ft | 243 kts | 338° |
| 2026-04-21 21:43 | 33.63091 | -117.99889 | 6994 ft | 231 kts | 338° |
| 2026-04-21 21:43 | 33.64583 | -118.00428 | 7005 ft | 216 kts | 337° |
| 2026-04-21 21:44 | 33.65984 | -118.00954 | 7015 ft | 203 kts | 336° |
| 2026-04-21 21:44 | 33.67358 | -118.01464 | 6988 ft | 206 kts | 337° |
| 2026-04-21 21:44 | 33.68700 | -118.01937 | 6980 ft | 196 kts | 336° |
| 2026-04-21 21:44 | 33.70009 | -118.02421 | 6995 ft | 194 kts | 335° |
| 2026-04-21 21:45 | 33.71317 | -118.02908 | 6998 ft | 196 kts | 336° |
| 2026-04-21 21:45 | 33.72634 | -118.03383 | 6991 ft | 196 kts | 336° |
| 2026-04-21 21:45 | 33.73948 | -118.03870 | 6995 ft | 197 kts | 336° |
| 2026-04-21 21:45 | 33.75246 | -118.04353 | 6991 ft | 195 kts | 337° |
| 2026-04-21 21:46 | 33.76553 | -118.04820 | 6989 ft | 196 kts | 336° |
| 2026-04-21 21:46 | 33.77854 | -118.05286 | 6980 ft | 189 kts | 336° |
| 2026-04-21 21:46 | 33.79100 | -118.05643 | 7009 ft | 186 kts | 341° |
| 2026-04-21 21:46 | 33.80392 | -118.05971 | 6982 ft | 186 kts | 341° |
| 2026-04-21 21:47 | 33.81645 | -118.06300 | 7058 ft | 183 kts | 340° |
| 2026-04-21 21:47 | 33.82908 | -118.06659 | 6983 ft | 183 kts | 336° |
| 2026-04-21 21:47 | 33.84136 | -118.07111 | 6988 ft | 185 kts | 336° |
| 2026-04-21 21:47 | 33.85350 | -118.07549 | 6996 ft | 184 kts | 336° |
| 2026-04-21 21:48 | 33.86597 | -118.08009 | 6976 ft | 184 kts | 336° |
| 2026-04-21 21:48 | 33.87803 | -118.08454 | 6883 ft | 180 kts | 336° |
| 2026-04-21 21:48 | 33.89018 | -118.08904 | 6544 ft | 181 kts | 336° |
| 2026-04-21 21:48 | 33.90210 | -118.09351 | 6239 ft | 179 kts | 336° |
| 2026-04-21 21:49 | 33.91434 | -118.09830 | 5430 ft | 204 kts | 337° |
| 2026-04-21 21:49 | 33.92867 | -118.10448 | 3927 ft | 248 kts | 336° |
| 2026-04-21 21:49 | 33.94519 | -118.11240 | 2754 ft | 264 kts | 336° |
| 2026-04-21 21:49 | 33.96220 | -118.12086 | 2347 ft | 267 kts | 332° |
| 2026-04-21 21:50 | 33.97665 | -118.13377 | 2938 ft | 254 kts | 307° |
| 2026-04-21 21:50 | 33.98468 | -118.15192 | 2985 ft | 238 kts | 278° |
| 2026-04-21 21:50 | 33.98406 | -118.17026 | 2997 ft | 206 kts | 249° |
| 2026-04-21 21:50 | 33.97886 | -118.18516 | 3052 ft | 186 kts | 247° |
| 2026-04-21 21:51 | 33.97405 | -118.19907 | 2993 ft | 171 kts | 247° |
| 2026-04-21 21:51 | 33.96968 | -118.21180 | 2953 ft | 159 kts | 247° |
| 2026-04-21 21:51 | 33.96545 | -118.22401 | 2714 ft | 155 kts | 246° |
| 2026-04-21 21:51 | 33.96146 | -118.23542 | 2527 ft | 144 kts | 246° |
| 2026-04-21 21:52 | 33.95766 | -118.24628 | 2304 ft | 132 kts | 247° |
| 2026-04-21 21:52 | 33.95411 | -118.25642 | 1887 ft | 136 kts | 247° |
| 2026-04-21 21:52 | 33.95112 | -118.26704 | 1488 ft | 132 kts | 251° |
| 2026-04-21 21:52 | 33.94886 | -118.27768 | 1170 ft | 130 kts | 256° |
| 2026-04-21 21:53 | 33.94700 | -118.28928 | 1108 ft | 151 kts | 258° |
| 2026-04-21 21:53 | 33.94537 | -118.30183 | 1221 ft | 144 kts | 261° |
| 2026-04-21 21:53 | 33.94426 | -118.31356 | 1142 ft | 140 kts | 263° |
| 2026-04-21 21:53 | 33.94338 | -118.32486 | 981 ft | 135 kts | 262° |
| 2026-04-21 21:54 | 33.94231 | -118.33627 | 878 ft | 137 kts | 261° |
| 2026-04-21 21:54 | 33.94106 | -118.34776 | 765 ft | 141 kts | 261° |
| 2026-04-21 21:54 | 33.93988 | -118.35965 | 591 ft | 145 kts | 260° |
| 2026-04-21 21:54 | 33.93855 | -118.37163 | 335 ft | 140 kts | 260° |
| 2026-04-21 21:55 | 33.93736 | -118.38287 | 141 ft | 132 kts | 258° |
| 2026-04-21 21:55 | 33.93633 | -118.39237 | 109 ft | 85 kts | 264° |
| 2026-04-21 21:55 | 33.93602 | -118.39711 | 113 ft | 35 kts | 275° |
| 2026-04-21 21:55 | 33.93655 | -118.39955 | 118 ft | 24 kts | 286° |
| 2026-04-21 21:56 | 33.93658 | -118.40108 | 121 ft | 14 kts | 265° |
| 2026-04-21 21:56 | 33.93649 | -118.40218 | 122 ft | 13 kts | 263° |
| 2026-04-21 21:56 | 33.93644 | -118.40275 | 122 ft | 0 kts | 267° |
| 2026-04-21 21:57 | 33.93641 | -118.40301 | 122 ft | 12 kts | 263° |
| 2026-04-21 21:57 | 33.93617 | -118.40528 | 126 ft | 36 kts | 264° |
| 2026-04-21 21:58 | 33.93603 | -118.40838 | 128 ft | 23 kts | 295° |
| 2026-04-21 21:58 | 33.93733 | -118.40909 | 128 ft | 16 kts | 353° |
| 2026-04-21 21:58 | 33.93792 | -118.40842 | 128 ft | 13 kts | 78° |
| 2026-04-21 21:58 | 33.93809 | -118.40691 | 128 ft | 26 kts | 83° |
| 2026-04-21 21:59 | 33.93831 | -118.40454 | 124 ft | 28 kts | 83° |
| 2026-04-21 21:59 | 33.93858 | -118.40220 | 122 ft | 28 kts | 82° |
| 2026-04-21 21:59 | 33.93885 | -118.39983 | 118 ft | 27 kts | 82° |
| 2026-04-21 21:59 | 33.93926 | -118.39821 | 115 ft | 16 kts | 22° |
| 2026-04-21 22:00 | 33.94036 | -118.39827 | 115 ft | 16 kts | 353° |
| 2026-04-21 22:00 | 33.94093 | -118.39793 | 115 ft | 5 kts | 79° |
| 2026-04-21 22:00 | 33.94094 | -118.39775 | 115 ft | 0 kts | 83° |